Time;durP1;ratioP1;P1;durP2;ratioP2;P2;SDS_P1;SDS_P2;PMS_P1;PMS_P2;Temp;Humidity;BMP_temperature;BMP_pressure;BME280_temperature;BME280_humidity;BME280_pressure;Samples;Min_cycle;Max_cycle;Signal;HPM_P1;HPM_P2
2022/08/07 00:00:51;;;;;;;1.00;0.50;;;13.90;75.40;;;;;;5049544;28;20021;-62
2022/08/07 00:03:16;;;;;;;0.50;0.50;;;13.90;75.10;;;;;;5049719;28;20033;-62
2022/08/07 00:05:42;;;;;;;0.40;0.40;;;13.90;75.40;;;;;;5049437;28;20389;-65
2022/08/07 00:08:08;;;;;;;1.20;0.50;;;14.00;74.20;;;;;;5050002;28;20862;-62
2022/08/07 00:10:34;;;;;;;0.80;0.50;;;14.00;73.10;;;;;;5050726;28;20013;-62
2022/08/07 00:13:03;;;;;;;3.67;0.65;;;14.00;73.60;;;;;;5049607;28;20489;-62
2022/08/07 00:15:30;;;;;;;0.40;0.40;;;13.90;73.70;;;;;;5049205;28;20106;-63
2022/08/07 00:17:56;;;;;;;0.68;0.47;;;13.90;73.50;;;;;;5048707;28;20033;-62
2022/08/07 00:20:22;;;;;;;0.40;0.40;;;13.80;73.40;;;;;;5049376;28;20437;-63
2022/08/07 00:22:48;;;;;;;1.45;0.50;;;13.70;74.40;;;;;;5049992;28;20047;-64
2022/08/07 00:25:13;;;;;;;0.55;0.40;;;13.70;74.40;;;;;;5032201;28;20033;-62
2022/08/07 00:27:39;;;;;;;1.00;0.40;;;13.60;74.70;;;;;;5048033;28;20496;-64
2022/08/07 00:30:05;;;;;;;1.75;0.60;;;13.60;75.20;;;;;;5049696;28;20025;-65
2022/08/07 00:32:31;;;;;;;1.02;0.50;;;13.50;75.90;;;;;;5048864;28;20056;-64
2022/08/07 00:34:56;;;;;;;0.47;0.47;;;13.50;76.90;;;;;;5049026;28;20495;-62
2022/08/07 00:37:23;;;;;;;0.82;0.40;;;13.50;76.30;;;;;;5049846;28;20116;-64
2022/08/07 00:39:49;;;;;;;0.55;0.45;;;13.50;76.00;;;;;;5049413;28;20035;-64
2022/08/07 00:42:15;;;;;;;1.95;0.60;;;13.40;76.40;;;;;;5049571;28;20396;-66
2022/08/07 00:44:41;;;;;;;1.65;0.55;;;13.30;77.50;;;;;;5048280;28;20041;-67
2022/08/07 00:47:07;;;;;;;2.15;0.70;;;13.30;77.40;;;;;;5049194;28;20013;-59
2022/08/07 00:49:33;;;;;;;1.38;0.50;;;13.30;79.60;;;;;;5049249;28;20049;-62
2022/08/07 00:51:59;;;;;;;2.05;0.57;;;13.20;80.10;;;;;;5049721;28;20061;-63
2022/08/07 00:54:25;;;;;;;1.45;0.50;;;13.10;79.30;;;;;;5048672;28;20119;-62
2022/08/07 00:56:51;;;;;;;0.95;0.63;;;13.10;79.90;;;;;;5048863;28;20033;-61
2022/08/07 00:59:17;;;;;;;0.88;0.50;;;13.10;81.30;;;;;;5049087;28;20124;-62
2022/08/07 01:01:43;;;;;;;0.95;0.40;;;13.00;80.40;;;;;;5049105;28;20025;-59
2022/08/07 01:04:09;;;;;;;1.63;0.75;;;13.00;81.30;;;;;;5048932;28;20534;-64
2022/08/07 01:06:35;;;;;;;0.70;0.40;;;13.00;81.50;;;;;;5048139;28;20423;-60
2022/08/07 01:09:03;;;;;;;1.15;0.60;;;12.90;81.90;;;;;;5049499;28;20060;-59
2022/08/07 01:11:29;;;;;;;1.15;0.40;;;12.90;80.80;;;;;;5029004;28;20028;-60
2022/08/07 01:13:55;;;;;;;0.73;0.50;;;12.90;81.90;;;;;;5049316;28;20028;-60
2022/08/07 01:16:21;;;;;;;0.73;0.50;;;12.90;84.10;;;;;;5047559;28;20082;-60
2022/08/07 01:18:47;;;;;;;0.90;0.50;;;12.80;83.70;;;;;;5046818;28;20025;-60
2022/08/07 01:21:19;;;;;;;0.93;0.60;;;12.70;83.20;;;;;;5048924;28;20025;-62
2022/08/07 01:23:46;;;;;;;2.28;0.60;;;12.60;84.80;;;;;;5048724;28;20029;-61
2022/08/07 01:26:15;;;;;;;1.77;0.52;;;12.40;86.40;;;;;;5048413;28;20504;-60
2022/08/07 01:28:46;;;;;;;0.75;0.60;;;12.30;87.00;;;;;;5047970;28;20017;-60
2022/08/07 01:31:12;;;;;;;0.50;0.50;;;12.30;89.20;;;;;;5046781;28;20017;-61
2022/08/07 01:33:38;;;;;;;1.20;0.75;;;12.20;88.90;;;;;;5047886;28;21011;-60
2022/08/07 01:36:05;;;;;;;1.08;0.60;;;12.20;90.60;;;;;;5048418;28;20032;-60
2022/08/07 01:38:31;;;;;;;2.65;0.70;;;12.20;93.20;;;;;;5047747;28;20028;-60
2022/08/07 01:40:59;;;;;;;0.50;0.50;;;12.10;92.90;;;;;;5048118;28;20013;-62
2022/08/07 01:43:26;;;;;;;2.05;0.50;;;12.10;92.80;;;;;;5047308;28;20112;-64
2022/08/07 01:45:53;;;;;;;0.98;0.60;;;12.00;93.10;;;;;;5048201;28;20382;-61
2022/08/07 01:48:19;;;;;;;2.15;0.60;;;11.90;92.70;;;;;;5048867;28;20061;-60
2022/08/07 01:50:49;;;;;;;1.35;0.70;;;11.80;93.10;;;;;;5048511;28;20492;-61
2022/08/07 01:53:17;;;;;;;1.17;0.50;;;11.70;94.40;;;;;;5048732;28;20095;-60
2022/08/07 01:55:48;;;;;;;1.13;0.60;;;11.60;95.00;;;;;;5047043;28;20676;-62
2022/08/07 01:58:17;;;;;;;2.30;0.68;;;11.50;95.30;;;;;;5047931;28;20501;-61
2022/08/07 02:00:45;;;;;;;0.60;0.60;;;11.50;95.90;;;;;;5047744;28;20384;-64
2022/08/07 02:03:14;;;;;;;1.65;0.77;;;11.50;96.60;;;;;;5049857;28;20017;-60
2022/08/07 02:05:41;;;;;;;1.92;0.60;;;11.50;96.80;;;;;;5047958;28;20029;-60
2022/08/07 02:08:14;;;;;;;1.42;0.85;;;11.40;96.50;;;;;;5047977;28;20036;-65
2022/08/07 02:10:42;;;;;;;0.70;0.70;;;11.40;97.70;;;;;;5047476;28;20016;-62
2022/08/07 02:13:09;;;;;;;1.50;0.85;;;11.30;98.70;;;;;;5047607;28;20037;-61
2022/08/07 02:15:38;;;;;;;1.30;0.70;;;11.20;98.60;;;;;;5048114;28;20036;-60
2022/08/07 02:18:08;;;;;;;1.88;0.80;;;11.10;98.70;;;;;;5046867;28;20513;-64
2022/08/07 02:20:34;;;;;;;1.80;0.90;;;11.00;99.90;;;;;;5047987;28;20072;-60
2022/08/07 02:23:03;;;;;;;1.10;1.00;;;10.90;99.90;;;;;;5047805;28;20021;-61
2022/08/07 02:25:31;;;;;;;0.80;0.70;;;10.90;99.90;;;;;;5048487;28;20196;-60
2022/08/07 02:27:59;;;;;;;3.63;1.13;;;10.80;99.90;;;;;;5047387;28;20046;-60
2022/08/07 02:30:26;;;;;;;2.08;1.15;;;10.80;99.90;;;;;;5047911;28;20033;-60
2022/08/07 02:32:53;;;;;;;0.88;0.80;;;10.80;99.90;;;;;;5048071;28;20033;-61
2022/08/07 02:35:20;;;;;;;1.33;0.90;;;10.70;99.90;;;;;;5047267;28;20524;-61
2022/08/07 02:37:46;;;;;;;0.95;0.68;;;10.70;99.90;;;;;;5046709;28;20029;-61
2022/08/07 02:40:13;;;;;;;0.80;0.70;;;10.60;99.90;;;;;;5048755;28;20361;-59
2022/08/07 02:42:40;;;;;;;0.82;0.70;;;10.50;99.90;;;;;;5051417;28;20039;-60
2022/08/07 02:45:09;;;;;;;1.33;0.65;;;10.50;99.90;;;;;;5051276;28;20031;-61
2022/08/07 02:47:35;;;;;;;0.77;0.77;;;10.40;99.90;;;;;;5051355;28;20075;-60
2022/08/07 02:50:01;;;;;;;0.75;0.65;;;10.20;99.90;;;;;;5051093;28;20028;-59
2022/08/07 02:52:45;;;;;;;0.93;0.70;;;10.20;99.90;;;;;;5051429;28;20029;-60
2022/08/07 02:55:17;;;;;;;2.08;0.82;;;10.10;99.90;;;;;;5051265;28;20041;-62
2022/08/07 02:57:45;;;;;;;0.77;0.70;;;10.10;99.90;;;;;;5050934;28;20031;-61
2022/08/07 03:00:12;;;;;;;4.32;1.17;;;10.00;99.90;;;;;;5050673;28;20091;-64
2022/08/07 03:02:41;;;;;;;1.10;0.88;;;10.00;99.90;;;;;;5050609;28;20496;-60
2022/08/07 03:05:10;;;;;;;1.35;0.80;;;10.00;99.90;;;;;;5051724;28;20048;-61
2022/08/07 03:07:37;;;;;;;1.02;0.90;;;9.90;99.90;;;;;;5050533;28;20396;-60
2022/08/07 03:10:03;;;;;;;2.40;1.10;;;10.00;99.90;;;;;;5050627;28;20029;-60
2022/08/07 03:12:30;;;;;;;1.42;0.90;;;10.00;99.90;;;;;;5050124;28;20083;-61
2022/08/07 03:14:57;;;;;;;1.73;1.00;;;10.00;99.90;;;;;;5051202;28;20459;-59
2022/08/07 03:17:23;;;;;;;1.05;1.00;;;10.00;99.90;;;;;;5049339;28;20493;-64
2022/08/07 03:19:50;;;;;;;1.67;1.00;;;10.00;99.90;;;;;;5050680;28;20029;-62
2022/08/07 03:22:18;;;;;;;0.93;0.80;;;10.00;99.90;;;;;;5051047;28;20029;-60
2022/08/07 03:24:44;;;;;;;1.35;0.90;;;9.90;99.90;;;;;;5050333;28;20029;-61
2022/08/07 03:27:10;;;;;;;2.55;0.90;;;9.80;99.90;;;;;;5085513;22;20151;-89
2022/08/07 03:29:56;;;;;;;0.95;0.73;;;9.80;99.90;;;;;;5085564;28;20036;-89
2022/08/07 03:32:28;;;;;;;1.08;0.98;;;9.80;99.90;;;;;;5073194;28;20100;-90
2022/08/07 03:34:58;;;;;;;1.80;1.20;;;9.70;99.90;;;;;;5073637;28;20468;-89
2022/08/07 03:37:25;;;;;;;1.33;1.10;;;9.70;99.90;;;;;;5089272;28;20460;-89
2022/08/07 03:39:52;;;;;;;1.10;1.00;;;9.60;99.90;;;;;;5093444;28;20090;-89
2022/08/07 03:42:18;;;;;;;2.72;1.45;;;9.60;99.90;;;;;;5075868;28;20024;-89
2022/08/07 03:44:44;;;;;;;1.48;1.00;;;9.60;99.90;;;;;;5074372;28;20102;-90
2022/08/07 03:47:11;;;;;;;3.95;1.10;;;9.60;99.90;;;;;;5083302;28;20029;-89
2022/08/07 03:49:38;;;;;;;1.15;0.90;;;9.50;99.90;;;;;;5074439;28;20180;-89
2022/08/07 03:52:05;;;;;;;1.27;1.02;;;9.50;99.90;;;;;;5093307;28;20035;-90
2022/08/07 03:54:30;;;;;;;1.20;1.10;;;9.50;99.90;;;;;;5084356;28;20492;-87
2022/08/07 03:56:56;;;;;;;1.13;0.98;;;9.60;99.90;;;;;;5074672;28;20131;-89
2022/08/07 03:59:25;;;;;;;0.80;0.80;;;9.60;99.90;;;;;;5069166;28;20029;-90
2022/08/07 04:01:53;;;;;;;1.50;1.00;;;9.60;99.90;;;;;;5093480;28;20023;-89
2022/08/07 04:04:19;;;;;;;1.95;0.95;;;9.60;99.90;;;;;;5087153;28;20492;-89
2022/08/07 04:06:44;;;;;;;4.60;0.90;;;9.50;99.90;;;;;;5071677;28;20112;-89
2022/08/07 04:09:11;;;;;;;0.90;0.80;;;9.50;99.90;;;;;;5078385;28;20031;-89
2022/08/07 04:11:37;;;;;;;1.00;0.90;;;9.40;99.90;;;;;;5092940;28;20028;-88
2022/08/07 04:14:05;;;;;;;1.05;0.70;;;9.30;99.90;;;;;;5093277;28;20031;-88
2022/08/07 04:16:31;;;;;;;1.70;0.90;;;9.30;99.90;;;;;;5093456;28;20031;-91
2022/08/07 04:18:57;;;;;;;1.20;1.10;;;9.30;99.90;;;;;;5076591;28;20107;-90
2022/08/07 04:21:22;;;;;;;0.98;0.80;;;9.30;99.90;;;;;;5078083;28;20071;-90
2022/08/07 04:23:49;;;;;;;1.35;1.25;;;9.30;99.90;;;;;;5074563;28;20025;-89
2022/08/07 04:26:15;;;;;;;0.80;0.80;;;9.30;99.90;;;;;;5074363;28;20063;-89
2022/08/07 04:28:41;;;;;;;1.65;0.90;;;9.30;99.90;;;;;;5089206;28;20391;-89
2022/08/07 04:31:08;;;;;;;2.30;1.40;;;9.30;99.90;;;;;;5089176;28;20035;-90
2022/08/07 04:33:35;;;;;;;1.30;0.93;;;9.30;99.90;;;;;;5078148;28;20543;-90
2022/08/07 04:36:02;;;;;;;1.65;0.80;;;9.30;99.90;;;;;;5061787;28;20063;-89
2022/08/07 04:38:28;;;;;;;2.45;0.80;;;9.40;99.90;;;;;;5083041;28;20449;-90
2022/08/07 04:40:53;;;;;;;2.80;0.80;;;9.40;99.90;;;;;;5088622;28;20052;-90
2022/08/07 04:43:29;;;;;;;10.95;1.00;;;9.40;99.90;;;;;;5074593;28;20471;-91
2022/08/07 04:46:07;;;;;;;2.78;0.85;;;9.50;99.90;;;;;;5088706;28;20028;-90
2022/08/07 04:48:51;;;;;;;2.28;0.95;;;9.50;99.90;;;;;;5091391;28;20032;-91
2022/08/07 04:51:37;;;;;;;1.70;0.85;;;9.60;99.90;;;;;;5082261;28;20082;-91
2022/08/07 04:54:09;;;;;;;2.90;1.10;;;9.60;99.90;;;;;;5092312;28;20078;-90
2022/08/07 04:56:35;;;;;;;1.08;0.80;;;9.70;99.90;;;;;;5077800;28;20085;-90
2022/08/07 04:59:11;;;;;;;2.22;1.00;;;9.80;99.90;;;;;;5092308;28;20016;-90
2022/08/07 05:01:53;;;;;;;1.23;0.80;;;9.90;99.90;;;;;;5092581;28;20100;-90
2022/08/07 05:04:35;;;;;;;2.60;1.00;;;10.00;99.90;;;;;;5080029;28;20036;-88
2022/08/07 05:07:10;;;;;;;1.13;0.80;;;10.10;99.90;;;;;;5085351;28;20036;-89
2022/08/07 05:09:58;;;;;;;0.82;0.75;;;10.30;99.90;;;;;;5091592;28;20028;-89
2022/08/07 05:12:30;;;;;;;1.60;0.70;;;11.00;99.90;;;;;;5076468;28;20032;-91
2022/08/07 05:15:14;;;;;;;0.93;0.68;;;12.10;99.90;;;;;;5092240;28;20489;-89
2022/08/07 05:17:48;;;;;;;1.15;0.70;;;13.50;99.90;;;;;;5083514;28;20039;-90
2022/08/07 05:20:16;;;;;;;1.00;0.60;;;15.30;99.90;;;;;;5079020;28;20047;-90
2022/08/07 05:22:45;;;;;;;3.85;0.60;;;16.90;91.00;;;;;;5073376;28;20081;-90
2022/08/07 05:25:13;;;;;;;1.13;0.60;;;18.60;78.80;;;;;;5087561;28;20040;-91
2022/08/07 05:27:39;;;;;;;0.45;0.45;;;19.80;72.00;;;;;;5082099;28;20036;-94
2022/08/07 05:30:05;;;;;;;2.97;0.50;;;21.20;65.10;;;;;;5090330;28;20154;-91
2022/08/07 05:32:31;;;;;;;0.50;0.50;;;22.00;61.10;;;;;;5091815;28;20039;-90
2022/08/07 05:34:58;;;;;;;0.50;0.40;;;23.00;58.20;;;;;;5081730;28;20032;-91
2022/08/07 05:37:25;;;;;;;0.50;0.50;;;24.00;56.10;;;;;;5088080;28;20016;-91
2022/08/07 05:39:51;;;;;;;2.45;0.50;;;25.00;53.40;;;;;;5089403;28;20107;-91
2022/08/07 05:42:17;;;;;;;0.40;0.40;;;25.80;51.40;;;;;;5086997;28;20024;-93
2022/08/07 05:44:42;;;;;;;1.55;0.40;;;26.40;49.60;;;;;;5085096;28;20400;-91
2022/08/07 05:47:10;;;;;;;2.60;0.55;;;26.80;48.20;;;;;;5071419;28;20029;-91
2022/08/07 05:49:36;;;;;;;2.00;0.50;;;26.90;47.40;;;;;;5085546;28;20028;-91
2022/08/07 05:52:03;;;;;;;0.73;0.50;;;27.30;47.10;;;;;;5072386;28;20404;-89
2022/08/07 05:54:28;;;;;;;0.45;0.40;;;27.50;45.60;;;;;;5068580;28;20163;-92
2022/08/07 05:56:56;;;;;;;1.73;0.40;;;27.40;45.60;;;;;;5076435;28;20120;-91
2022/08/07 05:59:23;;;;;;;0.50;0.40;;;27.70;45.60;;;;;;5082430;28;20043;-91
2022/08/07 06:01:50;;;;;;;1.30;0.40;;;28.10;45.40;;;;;;5079886;28;20031;-91
2022/08/07 06:04:18;;;;;;;0.88;0.47;;;28.60;45.40;;;;;;5091775;28;20085;-91
2022/08/07 06:06:44;;;;;;;0.70;0.47;;;29.00;44.40;;;;;;5073463;28;20035;-91
2022/08/07 06:09:13;;;;;;;0.98;0.35;;;29.90;43.40;;;;;;5085727;28;20041;-91
2022/08/07 06:11:39;;;;;;;0.70;0.38;;;30.40;41.60;;;;;;5084777;28;20036;-92
2022/08/07 06:14:05;;;;;;;0.80;0.25;;;31.20;39.90;;;;;;5086713;28;20031;-93
2022/08/07 06:16:34;;;;;;;1.60;0.20;;;31.60;39.50;;;;;;5091330;28;20024;-92
2022/08/07 06:19:01;;;;;;;0.63;0.40;;;32.30;37.80;;;;;;5081146;28;20033;-92
2022/08/07 06:21:28;;;;;;;0.35;0.32;;;32.70;36.60;;;;;;5081473;28;20032;-91
2022/08/07 06:23:54;;;;;;;1.02;0.50;;;32.60;37.70;;;;;;5085443;28;20048;-91
2022/08/07 06:26:20;;;;;;;0.95;0.40;;;32.70;37.10;;;;;;5076776;28;20032;-91
2022/08/07 06:28:55;;;;;;;1.55;0.40;;;32.50;36.70;;;;;;5107313;28;20035;-91
2022/08/07 06:31:21;;;;;;;0.88;0.35;;;33.00;36.80;;;;;;5095627;28;20032;-92
2022/08/07 06:33:47;;;;;;;2.03;0.40;;;33.70;35.30;;;;;;5071163;28;20497;-92
2022/08/07 06:36:13;;;;;;;0.90;0.30;;;33.60;34.30;;;;;;5073156;28;20178;-90
2022/08/07 06:38:41;;;;;;;2.35;0.40;;;34.00;34.50;;;;;;5082315;28;20107;-91
2022/08/07 06:41:21;;;;;;;0.30;0.30;;;34.20;34.50;;;;;;5076937;28;20194;-91
2022/08/07 06:43:48;;;;;;;;;;;33.60;34.00;;;;;;5089974;28;20115;-91
2022/08/07 06:46:15;;;;;;;0.30;0.30;;;33.70;33.90;;;;;;5090440;28;19912;-91
2022/08/07 06:48:41;;;;;;;0.43;0.30;;;33.70;33.80;;;;;;5094909;28;20148;-92
2022/08/07 06:51:11;;;;;;;0.43;0.30;;;33.80;32.40;;;;;;5094321;28;20111;-91
2022/08/07 06:53:39;;;;;;;1.23;0.20;;;33.30;33.60;;;;;;5073844;28;20107;-90
2022/08/07 06:56:06;;;;;;;1.48;0.60;;;33.20;33.80;;;;;;5073901;28;20028;-91
2022/08/07 06:58:36;;;;;;;1.48;0.45;;;33.70;34.10;;;;;;5074283;28;20024;-91
2022/08/07 07:01:05;;;;;;;0.83;0.30;;;33.80;33.80;;;;;;5081538;28;20040;-91
2022/08/07 07:03:32;;;;;;;5.95;0.40;;;34.60;33.00;;;;;;5081446;28;20427;-90
2022/08/07 07:05:58;;;;;;;0.75;0.50;;;35.00;32.50;;;;;;5094706;28;20028;-92
2022/08/07 07:08:28;;;;;;;0.55;0.30;;;35.80;32.60;;;;;;5092600;28;20024;-91
2022/08/07 07:10:55;;;;;;;1.35;0.40;;;35.60;31.40;;;;;;5074206;28;20024;-90
2022/08/07 07:13:40;;;;;;;0.95;0.30;;;35.20;31.80;;;;;;5094488;28;20078;-92
2022/08/07 07:16:12;;;;;;;1.30;0.30;;;35.30;31.80;;;;;;5085556;28;20033;-91
2022/08/07 07:18:43;;;;;;;0.55;0.40;;;35.40;31.30;;;;;;5069589;28;20108;-91
2022/08/07 07:21:25;;;;;;;1.52;0.40;;;35.20;30.50;;;;;;5083652;28;20028;-93
2022/08/07 07:23:51;;;;;;;0.60;0.30;;;35.30;32.70;;;;;;5070236;28;20047;-93
2022/08/07 07:26:19;;;;;;;1.15;0.40;;;35.70;31.40;;;;;;5076971;28;20036;-93
2022/08/07 07:28:58;;;;;;;1.35;0.30;;;36.30;31.60;;;;;;5092575;28;20031;-91
2022/08/07 07:31:27;;;;;;;1.05;0.30;;;36.20;32.00;;;;;;5092247;28;20071;-91
2022/08/07 07:33:57;;;;;;;0.90;0.30;;;36.30;30.80;;;;;;5089114;28;20661;-91
2022/08/07 07:36:25;;;;;;;1.02;0.50;;;36.60;30.50;;;;;;5073476;28;20035;-92
2022/08/07 07:38:51;;;;;;;1.48;0.50;;;36.70;29.80;;;;;;5092658;28;20032;-92
2022/08/07 07:41:20;;;;;;;1.42;0.40;;;36.90;30.20;;;;;;5088887;28;20098;-94
2022/08/07 07:43:47;;;;;;;1.30;0.32;;;37.30;30.10;;;;;;5095235;28;20019;-92
2022/08/07 07:46:14;;;;;;;1.17;0.40;;;37.30;29.10;;;;;;5069112;28;20521;-92
2022/08/07 07:48:41;;;;;;;0.95;0.45;;;37.80;29.50;;;;;;5096581;28;20028;-91
2022/08/07 07:51:08;;;;;;;1.08;0.70;;;37.60;29.10;;;;;;5086841;28;20028;-92
2022/08/07 07:53:37;;;;;;;1.98;0.30;;;38.00;28.60;;;;;;5085401;28;20116;-92
2022/08/07 07:56:05;;;;;;;1.80;0.40;;;38.30;28.80;;;;;;5075028;28;20020;-91
2022/08/07 07:58:36;;;;;;;1.38;0.40;;;37.30;28.60;;;;;;5088872;28;20107;-92
2022/08/07 08:01:03;;;;;;;1.55;0.30;;;37.10;29.00;;;;;;5091063;28;20024;-90
2022/08/07 08:03:32;;;;;;;0.63;0.30;;;37.50;29.40;;;;;;5093066;28;20024;-93
2022/08/07 08:05:59;;;;;;;1.25;0.20;;;37.90;29.40;;;;;;5087174;28;20031;-94
2022/08/07 08:08:27;;;;;;;0.40;0.30;;;38.20;29.00;;;;;;5074435;28;20054;-92
2022/08/07 08:10:54;;;;;;;0.63;0.30;;;38.10;28.70;;;;;;5072209;28;20023;-92
2022/08/07 08:13:23;;;;;;;0.45;0.35;;;38.50;28.40;;;;;;5075025;28;20575;-91
2022/08/07 08:15:49;;;;;;;4.80;0.40;;;37.30;28.30;;;;;;5070077;28;20035;-91
2022/08/07 08:18:16;;;;;;;0.55;0.30;;;35.40;29.80;;;;;;5088046;28;20060;-92
2022/08/07 08:20:43;;;;;;;1.27;0.40;;;35.30;30.00;;;;;;5087030;28;20031;-92
2022/08/07 08:28:42;;;;;;;1.63;0.32;;;37.40;29.90;;;;;;5076162;28;20110;-92
2022/08/07 08:31:13;;;;;;;0.65;0.32;;;37.40;28.60;;;;;;5089289;28;20024;-92
2022/08/07 08:33:41;;;;;;;0.70;0.40;;;37.00;28.40;;;;;;5074281;28;20039;-92
2022/08/07 08:36:09;;;;;;;0.70;0.40;;;36.80;29.90;;;;;;5065167;28;20039;-93
2022/08/07 08:38:42;;;;;;;0.52;0.32;;;37.90;29.70;;;;;;5074231;28;20034;-93
2022/08/07 08:41:30;;;;;;;0.47;0.35;;;38.70;28.70;;;;;;5091701;28;20093;-92
2022/08/07 08:44:10;;;;;;;0.30;0.20;;;39.40;28.30;;;;;;5092007;28;20102;-92
2022/08/07 08:47:00;;;;;;;1.15;0.20;;;39.70;27.30;;;;;;5060595;28;20031;-91
2022/08/07 08:49:58;;;;;;;0.43;0.30;;;39.70;27.60;;;;;;5082872;28;20074;-92
2022/08/07 08:52:28;;;;;;;1.20;0.30;;;40.60;27.50;;;;;;5049749;28;20028;-92
2022/08/07 08:54:58;;;;;;;0.35;0.30;;;40.90;26.90;;;;;;5073604;28;20029;-92
2022/08/07 08:58:07;;;;;;;0.82;0.40;;;40.40;26.90;;;;;;5091724;28;20392;-91
2022/08/07 09:00:42;;;;;;;1.25;0.30;;;37.30;27.90;;;;;;5073975;28;20028;-93
2022/08/07 09:03:19;;;;;;;0.68;0.43;;;34.90;29.60;;;;;;5085801;28;20021;-92
2022/08/07 09:06:20;;;;;;;0.88;0.47;;;34.20;31.40;;;;;;5084248;28;20028;-91
2022/08/07 09:08:45;;;;;;;;;;;34.60;31.80;;;;;;5081785;28;20036;-92
2022/08/07 09:11:23;;;;;;;1.58;0.40;;;35.80;30.60;;;;;;5070506;28;19916;-91
2022/08/07 09:13:48;;;;;;;0.65;0.40;;;36.60;30.00;;;;;;5084455;28;20026;-91
2022/08/07 09:16:20;;;;;;;0.68;0.40;;;37.10;29.60;;;;;;5088216;28;20119;-92
2022/08/07 09:19:23;;;;;;;1.40;0.50;;;36.30;29.30;;;;;;5061744;28;20048;-90
2022/08/07 09:22:01;;;;;;;0.50;0.20;;;34.80;31.00;;;;;;5071730;28;20021;-91
2022/08/07 09:24:57;;;;;;;0.52;0.40;;;33.90;31.20;;;;;;5086436;28;20127;-90
2022/08/07 09:27:48;;;;;;;1.25;0.40;;;33.90;31.30;;;;;;5085961;28;20505;-91
2022/08/07 09:30:14;;;;;;;1.58;0.43;;;34.70;31.00;;;;;;5072333;28;20040;-92
2022/08/07 09:33:05;;;;;;;1.55;0.40;;;35.30;29.80;;;;;;5091507;28;20043;-93
2022/08/07 09:35:37;;;;;;;0.50;0.30;;;35.70;29.00;;;;;;5056581;28;20028;-91
2022/08/07 09:38:10;;;;;;;1.70;0.50;;;35.80;28.40;;;;;;5066143;28;20604;-89
2022/08/07 09:41:01;;;;;;;3.40;0.40;;;35.70;29.10;;;;;;5084361;28;20081;-91
2022/08/07 09:43:48;;;;;;;0.35;0.30;;;35.70;29.20;;;;;;5087274;28;20085;-93
2022/08/07 09:46:35;;;;;;;0.50;0.30;;;35.60;29.60;;;;;;5089742;28;20056;-91
2022/08/07 09:49:23;;;;;;;0.55;0.55;;;35.40;29.30;;;;;;5091124;28;20028;-92
2022/08/07 09:52:09;;;;;;;1.50;0.80;;;35.00;29.60;;;;;;5064939;28;20032;-92
2022/08/07 09:54:43;;;;;;;0.73;0.40;;;35.10;30.30;;;;;;5078449;28;20060;-91
2022/08/07 09:57:40;;;;;;;1.13;0.43;;;35.10;29.80;;;;;;5082263;28;20024;-92
2022/08/07 10:00:12;;;;;;;1.45;0.30;;;35.40;29.60;;;;;;5081709;28;20036;-90
2022/08/07 10:02:47;;;;;;;0.65;0.40;;;35.30;29.60;;;;;;5091199;28;20071;-90
2022/08/07 10:05:15;;;;;;;0.80;0.32;;;34.60;29.90;;;;;;5081198;28;20024;-91
2022/08/07 10:07:53;;;;;;;0.52;0.25;;;34.40;30.50;;;;;;5095935;28;20012;-92
2022/08/07 10:10:43;;;;;;;2.22;0.40;;;34.60;31.20;;;;;;5091047;28;20059;-90
2022/08/07 10:13:12;;;;;;;0.60;0.40;;;34.80;30.80;;;;;;5059514;28;20028;-90
2022/08/07 10:15:45;;;;;;;0.65;0.30;;;34.90;30.70;;;;;;5092051;28;20028;-89
2022/08/07 10:18:16;;;;;;;1.27;0.30;;;33.50;30.10;;;;;;5059168;28;20108;-90
2022/08/07 10:20:46;;;;;;;0.70;0.50;;;32.00;34.40;;;;;;5087739;28;20020;-90
2022/08/07 10:23:57;;;;;;;2.30;0.40;;;30.50;33.00;;;;;;5093407;28;20376;-90
2022/08/07 10:26:40;;;;;;;1.38;0.38;;;31.20;34.70;;;;;;5088282;28;20028;-92
2022/08/07 10:29:24;;;;;;;0.57;0.50;;;31.00;34.60;;;;;;5077141;28;20027;-90
2022/08/07 10:32:10;;;;;;;0.82;0.43;;;31.20;32.80;;;;;;5092871;28;20046;-92
2022/08/07 10:35:06;;;;;;;0.77;0.38;;;32.20;33.30;;;;;;5071966;28;20044;-91
2022/08/07 10:37:50;;;;;;;0.88;0.30;;;33.20;32.60;;;;;;5014839;28;20028;-91
2022/08/07 10:40:37;;;;;;;0.93;0.40;;;33.80;30.40;;;;;;5082663;28;20028;-92
2022/08/07 10:43:28;;;;;;;1.73;0.60;;;34.30;31.20;;;;;;5094686;28;20028;-92
2022/08/07 10:45:59;;;;;;;1.77;0.30;;;35.00;30.50;;;;;;5084520;28;20066;-92
2022/08/07 10:48:47;;;;;;;1.13;0.30;;;34.90;30.00;;;;;;5079624;28;20123;-91
2022/08/07 10:51:39;;;;;;;0.47;0.30;;;35.10;30.30;;;;;;5080871;28;20032;-92
2022/08/07 10:54:16;;;;;;;1.35;0.47;;;34.20;29.90;;;;;;5092672;28;20518;-91
2022/08/07 10:56:58;;;;;;;0.50;0.32;;;31.70;32.90;;;;;;5083935;28;20059;-92
2022/08/07 10:59:42;;;;;;;0.70;0.40;;;31.60;33.40;;;;;;5083368;28;20024;-92
2022/08/07 11:02:25;;;;;;;0.70;0.30;;;32.40;34.40;;;;;;5090673;28;20031;-91
2022/08/07 11:05:15;;;;;;;0.75;0.50;;;33.20;32.90;;;;;;5097728;28;20100;-90
2022/08/07 11:07:59;;;;;;;0.80;0.43;;;34.00;31.90;;;;;;5085884;28;20052;-92
2022/08/07 11:10:37;;;;;;;0.70;0.40;;;34.10;30.70;;;;;;5080851;28;20074;-89
2022/08/07 11:13:24;;;;;;;0.40;0.30;;;33.50;30.20;;;;;;5091312;28;20054;-90
2022/08/07 11:15:53;;;;;;;1.00;0.35;;;33.50;32.20;;;;;;5086615;28;20041;-91
2022/08/07 11:18:32;;;;;;;2.65;0.40;;;33.80;32.00;;;;;;5094016;28;20052;-92
2022/08/07 11:21:02;;;;;;;0.75;0.50;;;33.20;30.50;;;;;;5082940;28;20039;-91
2022/08/07 11:23:36;;;;;;;0.75;0.47;;;32.40;32.20;;;;;;5075668;28;20499;-91
2022/08/07 11:26:05;;;;;;;1.00;0.50;;;31.70;33.10;;;;;;5085690;28;20028;-92
2022/08/07 11:28:48;;;;;;;1.15;0.50;;;30.80;33.70;;;;;;5060653;28;20074;-92
2022/08/07 11:32:01;;;;;;;1.35;0.30;;;31.20;34.80;;;;;;5073315;28;20040;-91
2022/08/07 11:34:51;;;;;;;0.80;0.50;;;31.40;34.00;;;;;;5091899;28;20032;-91
2022/08/07 11:37:25;;;;;;;1.02;0.38;;;30.90;33.60;;;;;;5093947;28;20032;-91
2022/08/07 11:40:32;;;;;;;2.47;0.60;;;30.10;34.10;;;;;;5083384;28;20075;-92
2022/08/07 11:43:30;;;;;;;1.58;0.50;;;29.70;35.50;;;;;;5082391;28;20039;-92
2022/08/07 11:46:43;;;;;;;0.88;0.50;;;29.60;35.30;;;;;;5071290;28;20040;-93
2022/08/07 11:49:34;;;;;;;1.50;0.60;;;28.90;36.20;;;;;;5078531;28;20082;-93
2022/08/07 11:52:24;;;;;;;1.85;0.68;;;28.90;36.50;;;;;;5073298;28;20032;-92
2022/08/07 11:55:17;;;;;;;0.40;0.40;;;28.40;37.10;;;;;;5079788;28;20028;-91
2022/08/07 11:57:49;;;;;;;1.00;0.60;;;29.00;38.00;;;;;;5068574;28;20031;-91
2022/08/07 12:00:18;;;;;;;1.67;0.50;;;29.20;36.10;;;;;;5087401;28;20030;-91
2022/08/07 12:03:10;;;;;;;1.02;0.40;;;29.60;36.50;;;;;;5087216;28;20095;-92
2022/08/07 12:05:55;;;;;;;1.50;0.40;;;30.20;35.80;;;;;;5071753;28;20056;-90
2022/08/07 12:08:36;;;;;;;0.52;0.50;;;30.60;35.60;;;;;;5077984;28;20020;-92
2022/08/07 12:11:18;;;;;;;1.48;0.52;;;31.00;34.70;;;;;;5067094;28;20372;-92
2022/08/07 12:14:07;;;;;;;0.85;0.40;;;31.40;34.70;;;;;;5068746;28;20016;-92
2022/08/07 12:16:46;;;;;;;1.20;0.40;;;31.60;32.80;;;;;;5086382;28;20147;-92
2022/08/07 12:19:24;;;;;;;0.57;0.50;;;31.60;33.70;;;;;;5083986;28;20020;-90
2022/08/07 12:21:57;;;;;;;0.55;0.50;;;31.80;33.00;;;;;;5070799;28;20082;-91
2022/08/07 12:25:51;;;;;;;0.57;0.40;;;31.90;33.60;;;;;;5057877;28;20016;-89
2022/08/07 12:27:38;;;;;;;0.60;0.40;;;31.90;33.10;;;;;;5074252;28;20044;-91
2022/08/07 12:30:06;;;;;;;0.60;0.40;;;32.20;32.90;;;;;;5077697;28;20028;-91
2022/08/07 12:32:43;;;;;;;0.82;0.45;;;32.40;32.80;;;;;;5089871;28;20032;-91
2022/08/07 12:35:12;;;;;;;1.17;0.40;;;32.30;31.70;;;;;;5094460;28;20023;-91
2022/08/07 12:37:40;;;;;;;0.73;0.50;;;31.80;30.80;;;;;;5085213;28;20046;-91
2022/08/07 12:40:08;;;;;;;0.60;0.35;;;32.10;33.20;;;;;;5094305;28;20036;-91
2022/08/07 12:42:35;;;;;;;0.88;0.47;;;32.40;32.70;;;;;;5085622;28;20067;-91
2022/08/07 12:45:10;;;;;;;0.65;0.40;;;32.50;32.60;;;;;;5096175;28;20024;-90
2022/08/07 12:48:01;;;;;;;1.33;0.50;;;32.30;31.60;;;;;;5083449;28;20032;-90
2022/08/07 12:50:47;;;;;;;0.90;0.40;;;30.00;32.10;;;;;;5094836;28;20089;-91
2022/08/07 12:53:20;;;;;;;1.17;0.50;;;29.20;33.50;;;;;;5093135;28;20121;-92
2022/08/07 12:55:59;;;;;;;1.52;0.60;;;29.00;34.20;;;;;;5068778;28;20027;-92
2022/08/07 12:58:27;;;;;;;4.15;0.50;;;28.80;33.60;;;;;;5077106;28;20032;-90
2022/08/07 13:01:17;;;;;;;1.05;0.55;;;28.60;36.10;;;;;;5093246;28;20069;-92
2022/08/07 13:03:58;;;;;;;5.05;0.70;;;28.80;34.40;;;;;;5035173;28;20024;-90
2022/08/07 13:06:23;;;;;;;;;;;29.00;34.00;;;;;;5076355;28;20143;-91
2022/08/07 13:09:24;;;;;;;1.25;0.50;;;28.70;34.30;;;;;;5093322;28;20471;-90
2022/08/07 13:12:18;;;;;;;1.40;0.68;;;28.10;34.40;;;;;;5089991;28;20032;-90
2022/08/07 13:15:02;;;;;;;0.47;0.30;;;27.70;35.00;;;;;;5093712;28;20553;-91
2022/08/07 13:17:54;;;;;;;1.75;0.50;;;27.80;35.50;;;;;;5076100;28;20044;-90
2022/08/07 13:20:33;;;;;;;1.33;0.57;;;27.90;36.00;;;;;;5093644;28;20093;-90
2022/08/07 13:23:05;;;;;;;1.40;0.40;;;27.60;35.70;;;;;;5082093;28;20034;-92